Time;durP1;ratioP1;P1;durP2;ratioP2;P2;SDS_P1;SDS_P2;PMS_P1;PMS_P2;Temp;Humidity;BMP_temperature;BMP_pressure;BME280_temperature;BME280_humidity;BME280_pressure;Samples;Min_cycle;Max_cycle;Signal;HPM_P1;HPM_P2
2022/06/05 00:01:26;;;;;;;;;;;;;;;-142.75;100.00;77030.94;5044922;28;19924;-70
2022/06/05 00:03:51;;;;;;;;;;;;;;;-142.75;100.00;77042.75;5053394;28;19921;-70
2022/06/05 00:06:22;;;;;;;;;;;;;;;-142.75;100.00;77056.53;5068946;28;19916;-68
2022/06/05 00:09:11;;;;;;;;;;;;;;;-142.75;100.00;77054.56;5053305;28;19935;-69
2022/06/05 00:11:43;;;;;;;;;;;;;;;-142.75;100.00;77054.56;5053550;28;19917;-69
2022/06/05 00:14:09;;;;;;;;;;;;;;;-142.75;100.00;77064.41;5053466;28;19923;-68
2022/06/05 00:16:34;;;;;;;;;;;;;;;-142.75;100.00;77052.59;5053297;28;19917;-69
2022/06/05 00:18:59;;;;;;;;;;;;;;;-142.75;100.00;77048.66;5053181;28;19961;-69
2022/06/05 00:21:24;;;;;;;;;;;;;;;-142.75;100.00;77048.66;5051956;28;19923;-68
2022/06/05 00:23:51;;;;;;;;;;;;;;;-142.75;100.00;77054.56;5051841;28;19925;-67
2022/06/05 00:26:29;;;;;;;;;;;;;;;-142.75;100.00;77048.66;5034705;28;19939;-68
2022/06/05 00:29:15;;;;;;;;;;;;;;;-142.75;100.00;77044.72;5035431;28;19944;-67
2022/06/05 00:31:40;;;;;;;;;;;;;;;-142.75;100.00;77042.75;5035627;28;19917;-67
2022/06/05 00:34:05;;;;;;;;;;;;;;;-142.75;100.00;77048.66;5033185;28;20294;-68
2022/06/05 00:36:42;;;;;;;;;;;;;;;-142.75;100.00;77034.88;5051285;28;19917;-67
2022/06/05 00:39:14;;;;;;;;;;;;;;;-142.75;100.00;77038.81;5065812;28;19917;-68
2022/06/05 00:41:47;;;;;;;;;;;;;;;-142.75;100.00;77027.00;5033037;28;20378;-67
2022/06/05 00:44:15;;;;;;;;;;;;;;;-142.75;100.00;77032.91;5041420;28;19931;-67
2022/06/05 00:46:41;;;;;;;;;;;;;;;-142.75;100.00;77032.91;5042217;28;19917;-67
2022/06/05 00:49:07;;;;;;;;;;;;;;;-142.75;100.00;77042.75;5032682;28;19917;-68
2022/06/05 00:51:32;;;;;;;;;;;;;;;-142.75;100.00;77040.78;5052278;28;20316;-67
2022/06/05 00:53:57;;;;;;;;;;;;;;;-142.75;100.00;77038.81;5051346;28;19923;-68
2022/06/05 00:56:22;;;;;;;;;;;;;;;-142.75;100.00;77054.56;5052712;28;20398;-69
2022/06/05 00:58:48;;;;;;;;;;;;;;;-142.75;100.00;77048.66;5047012;28;19925;-68
2022/06/05 01:01:13;;;;;;;;;;;;;;;-142.75;100.00;77042.75;5042247;28;20511;-69
2022/06/05 01:03:38;;;;;;;;;;;;;;;-142.75;100.00;77054.56;5032498;28;20391;-67
2022/06/05 01:06:03;;;;;;;;;;;;;;;-142.75;100.00;77054.56;5038022;28;19975;-68
2022/06/05 01:08:29;;;;;;;;;;;;;;;-142.75;100.00;77054.56;5037803;28;19967;-67
2022/06/05 01:11:20;;;;;;;;;;;;;;;-142.75;100.00;77052.59;5032542;28;19920;-68
2022/06/05 01:14:12;;;;;;;;;;;;;;;-142.75;100.00;77060.47;5029117;28;19978;-69
2022/06/05 01:16:49;;;;;;;;;;;;;;;-142.75;100.00;77060.47;5044566;28;19956;-68
2022/06/05 01:19:19;;;;;;;;;;;;;;;-142.75;100.00;77070.31;5032087;28;19921;-68
2022/06/05 01:21:59;;;;;;;;;;;;;;;-142.75;100.00;77084.09;5032257;28;19927;-68
2022/06/05 01:24:43;;;;;;;;;;;;;;;-142.75;100.00;77101.81;5043444;28;19925;-67
2022/06/05 01:27:12;;;;;;;;;;;;;;;-142.75;100.00;77086.06;5033260;28;20387;-68
2022/06/05 01:29:41;;;;;;;;;;;;;;;-142.75;100.00;77062.44;5051811;28;19952;-68
2022/06/05 01:32:12;;;;;;;;;;;;;;;-142.75;100.00;77070.31;5037828;28;19917;-67
2022/06/05 01:34:42;;;;;;;;;;;;;;;-142.75;100.00;77072.28;5032040;28;19924;-68
2022/06/05 01:37:40;;;;;;;;;;;;;;;-142.75;100.00;77060.47;5031881;28;19963;-68
2022/06/05 01:40:08;;;;;;;;;;;;;;;-142.75;100.00;77048.66;5017175;28;19943;-67
2022/06/05 01:42:36;;;;;;;;;;;;;;;-142.75;100.00;77034.88;5034464;28;19928;-67
2022/06/05 01:45:04;;;;;;;;;;;;;;;-142.75;100.00;77042.75;5043279;28;20004;-67
2022/06/05 01:47:33;;;;;;;;;;;;;;;-142.75;100.00;77040.78;5051712;28;19928;-67
2022/06/05 01:50:03;;;;;;;;;;;;;;;-142.75;100.00;77034.88;5051459;28;19999;-67
2022/06/05 01:52:28;;;;;;;;;;;;;;;-142.75;100.00;77038.81;5051628;28;19916;-69
2022/06/05 01:54:58;;;;;;;;;;;;;;;-142.75;100.00;77034.88;5051599;28;19920;-68
2022/06/05 01:57:25;;;;;;;;;;;;;;;-142.75;100.00;77038.81;5051648;28;20058;-68
2022/06/05 01:59:53;;;;;;;;;;;;;;;-142.75;100.00;77036.84;5051236;28;20283;-67
2022/06/05 02:02:24;;;;;;;;;;;;;;;-142.75;100.00;77036.84;5072843;23;19988;-65
2022/06/05 02:04:52;;;;;;;;;;;;;;;-142.75;100.00;77038.81;5009302;28;19938;-66
2022/06/05 02:07:33;;;;;;;;;;;;;;;-142.75;100.00;77046.69;5011162;28;19925;-67
2022/06/05 02:10:04;;;;;;;;;;;;;;;-142.75;100.00;77046.69;5011535;28;19921;-67
2022/06/05 02:12:31;;;;;;;;;;;;;;;-142.75;100.00;77060.47;5011690;28;19923;-67
2022/06/05 02:14:56;;;;;;;;;;;;;;;-142.75;100.00;77052.59;5011593;28;19922;-66
2022/06/05 02:17:21;;;;;;;;;;;;;;;-142.75;100.00;77054.56;5011116;28;19968;-67
2022/06/05 02:19:47;;;;;;;;;;;;;;;-142.75;100.00;77054.56;5011350;28;19924;-66
2022/06/05 02:22:15;;;;;;;;;;;;;;;-142.75;100.00;77056.53;5011403;28;20369;-66
2022/06/05 02:24:42;;;;;;;;;;;;;;;-142.75;100.00;77058.50;5010900;28;21441;-67
2022/06/05 02:27:07;;;;;;;;;;;;;;;-142.75;100.00;77058.50;5011513;28;19972;-67
2022/06/05 02:29:32;;;;;;;;;;;;;;;-142.75;100.00;77058.50;5010006;28;19917;-67
2022/06/05 02:32:01;;;;;;;;;;;;;;;-142.75;100.00;77050.63;5011544;28;19918;-66
2022/06/05 02:34:27;;;;;;;;;;;;;;;-142.75;100.00;77052.59;4993691;28;20008;-67
2022/06/05 02:37:08;;;;;;;;;;;;;;;-142.75;100.00;77044.72;5011386;28;20012;-66
2022/06/05 02:39:36;;;;;;;;;;;;;;;-142.75;100.00;77046.69;5011153;28;19918;-66
2022/06/05 02:42:01;;;;;;;;;;;;;;;-142.75;100.00;77040.78;5011391;28;19921;-67
2022/06/05 02:44:40;;;;;;;;;;;;;;;-142.75;100.00;77036.84;5011374;28;19924;-66
2022/06/05 02:47:18;;;;;;;;;;;;;;;-142.75;100.00;77032.91;5011564;28;19924;-66
2022/06/05 02:49:47;;;;;;;;;;;;;;;-142.75;100.00;77025.03;5011053;28;19924;-66
2022/06/05 02:52:13;;;;;;;;;;;;;;;-142.75;100.00;77030.94;5011251;28;20011;-66
2022/06/05 02:54:45;;;;;;;;;;;;;;;-142.75;100.00;77027.00;5011304;28;20012;-65
2022/06/05 02:57:10;;;;;;;;;;;;;;;-142.75;100.00;77023.06;5011293;28;19932;-66
2022/06/05 02:59:36;;;;;;;;;;;;;;;-142.75;100.00;77015.19;5010991;28;20354;-66
2022/06/05 03:04:44;;;;;;;;;;;;;;;-142.75;100.00;77015.19;5011188;28;20402;-65
2022/06/05 03:07:10;;;;;;;;;;;;;;;-142.75;100.00;77011.25;5011217;28;19918;-66
2022/06/05 03:09:35;;;;;;;;;;;;;;;-142.75;100.00;77011.25;5010895;28;19926;-65
2022/06/05 03:12:01;;;;;;;;;;;;;;;-142.75;100.00;77007.31;5011109;28;19964;-66
2022/06/05 03:14:26;;;;;;;;;;;;;;;-142.75;100.00;77011.25;5010920;28;19925;-66
2022/06/05 03:16:52;;;;;;;;;;;;;;;-142.75;100.00;77007.31;5011065;28;19921;-66
2022/06/05 03:19:17;;;;;;;;;;;;;;;-142.75;100.00;77009.28;4993134;28;19965;-65
2022/06/05 03:21:42;;;;;;;;;;;;;;;-142.75;100.00;77015.19;4993428;28;20288;-65
2022/06/05 03:24:08;;;;;;;;;;;;;;;-142.75;100.00;77003.38;5010891;28;19922;-65
2022/06/05 03:26:33;;;;;;;;;;;;;;;-142.75;100.00;77009.28;5010864;28;19972;-65
2022/06/05 03:28:59;;;;;;;;;;;;;;;-142.75;100.00;77003.38;5012421;28;19952;-65
2022/06/05 03:31:24;;;;;;;;;;;;;;;-142.75;100.00;76995.50;5014700;28;20539;-66
2022/06/05 03:33:50;;;;;;;;;;;;;;;-142.75;100.00;76995.50;5014445;28;20398;-66
2022/06/05 03:36:16;;;;;;;;;;;;;;;-142.75;100.00;77007.31;5014571;28;19929;-66
2022/06/05 03:38:41;;;;;;;;;;;;;;;-142.75;100.00;77013.22;5014184;28;19925;-66
2022/06/05 03:41:08;;;;;;;;;;;;;;;-142.75;100.00;77015.19;5014465;28;19921;-65
2022/06/05 03:43:33;;;;;;;;;;;;;;;-142.75;100.00;77038.81;5012821;28;19921;-66
2022/06/05 03:46:03;;;;;;;;;;;;;;;-142.75;100.00;77054.56;5014361;28;19918;-65
2022/06/05 03:48:28;;;;;;;;;;;;;;;-142.75;100.00;77056.53;5014043;28;19964;-65
2022/06/05 03:50:53;;;;;;;;;;;;;;;-142.75;100.00;77058.50;5014212;28;20350;-66
2022/06/05 03:53:19;;;;;;;;;;;;;;;-142.75;100.00;77042.75;5014179;28;20338;-65
2022/06/05 03:55:44;;;;;;;;;;;;;;;-142.75;100.00;77048.66;5014141;28;19949;-65
2022/06/05 03:58:09;;;;;;;;;;;;;;;-142.75;100.00;77044.72;5012502;28;20008;-65
2022/06/05 04:00:34;;;;;;;;;;;;;;;-142.75;100.00;77062.44;5013996;28;19917;-66
2022/06/05 04:03:00;;;;;;;;;;;;;;;-142.75;100.00;77070.31;5013681;28;20004;-67
2022/06/05 04:05:25;;;;;;;;;;;;;;;-142.75;100.00;77084.09;5013932;28;20611;-65
2022/06/05 04:07:51;;;;;;;;;;;;;;;-142.75;100.00;77091.97;4996191;28;19936;-66
2022/06/05 04:10:17;;;;;;;;;;;;;;;-142.75;100.00;77090.00;5013873;28;20000;-65
2022/06/05 04:12:42;;;;;;;;;;;;;;;-142.75;100.00;77103.78;5013800;28;20008;-65
2022/06/05 04:15:09;;;;;;;;;;;;;;;-142.75;100.00;77113.63;5013753;28;19967;-66
2022/06/05 04:17:34;;;;;;;;;;;;;;;-142.75;100.00;77097.88;5013797;28;20387;-65
2022/06/05 04:20:00;;;;;;;;;;;;;;;-142.75;100.00;77109.69;5013397;28;19921;-66
2022/06/05 04:22:25;;;;;;;;;;;;;;;-142.75;100.00;77121.50;5012317;28;19929;-66
2022/06/05 04:24:50;;;;;;;;;;;;;;;-142.75;100.00;77123.47;5013566;28;19925;-66
2022/06/05 04:27:15;;;;;;;;;;;;;;;-142.75;100.00;77129.38;5013506;28;19925;-65
2022/06/05 04:29:41;;;;;;;;;;;;;;;-142.75;100.00;77125.44;5013248;28;19917;-65
2022/06/05 04:32:06;;;;;;;;;;;;;;;-142.75;100.00;77117.56;5013496;28;19921;-67
2022/06/05 04:34:31;;;;;;;;;;;;;;;-142.75;100.00;77127.41;5013294;28;20441;-65
2022/06/05 04:36:56;;;;;;;;;;;;;;;-142.75;100.00;77121.50;5013345;28;20363;-65
2022/06/05 04:39:22;;;;;;;;;;;;;;;-142.75;100.00;77123.47;5013010;28;19964;-66
2022/06/05 04:41:48;;;;;;;;;;;;;;;-142.75;100.00;77129.38;5012619;28;19917;-66
2022/06/05 04:44:14;;;;;;;;;;;;;;;-142.75;100.00;77131.34;5013174;28;19921;-65
2022/06/05 04:46:39;;;;;;;;;;;;;;;-142.75;100.00;77133.31;5013026;28;20421;-66
2022/06/05 04:49:06;;;;;;;;;;;;;;;-142.75;100.00;77121.50;5012867;28;19917;-65
2022/06/05 04:51:32;;;;;;;;;;;;;;;-142.75;100.00;77113.63;5013114;28;19949;-66
2022/06/05 04:53:57;;;;;;;;;;;;;;;-142.75;100.00;77125.44;4995338;28;19955;-66
2022/06/05 04:56:24;;;;;;;;;;;;;;;-142.75;100.00;77135.28;5013021;28;19924;-65
2022/06/05 04:58:49;;;;;;;;;;;;;;;-142.75;100.00;77135.28;5012757;28;19997;-66
2022/06/05 05:01:20;;;;;;;;;;;;;;;-142.75;100.00;77125.44;5012870;28;19945;-66
2022/06/05 05:03:46;;;;;;;;;;;;;;;-142.75;100.00;77135.28;5012619;28;19921;-65
2022/06/05 05:06:12;;;;;;;;;;;;;;;-142.75;100.00;77115.59;5012916;28;19944;-65
2022/06/05 05:08:37;;;;;;;;;;;;;;;-142.75;100.00;77109.69;5012522;28;19925;-67
2022/06/05 05:11:02;;;;;;;;;;;;;;;-142.75;100.00;77109.69;5012763;28;19925;-66
2022/06/05 05:13:27;;;;;;;;;;;;;;;-142.75;100.00;77101.81;5012645;28;19918;-65
2022/06/05 05:15:54;;;;;;;;;;;;;;;-142.75;100.00;77093.94;5012644;28;20008;-66
2022/06/05 05:18:20;;;;;;;;;;;;;;;-142.75;100.00;77101.81;5012331;28;20387;-66
2022/06/05 05:20:45;;;;;;;;;;;;;;;-142.75;100.00;77103.78;5012527;28;19924;-65
2022/06/05 05:23:10;;;;;;;;;;;;;;;-142.75;100.00;77101.81;5012394;28;19929;-66
2022/06/05 05:25:35;;;;;;;;;;;;;;;-142.75;100.00;77095.91;5012408;28;20280;-66
2022/06/05 05:28:00;;;;;;;;;;;;;;;-142.75;100.00;77090.00;5012135;28;19924;-65
2022/06/05 05:30:26;;;;;;;;;;;;;;;-142.75;100.00;77105.75;5012455;28;19925;-66
2022/06/05 05:32:51;;;;;;;;;;;;;;;-142.75;100.00;77086.06;5012301;28;20388;-66
2022/06/05 05:35:17;;;;;;;;;;;;;;;-142.75;100.00;77082.13;4994649;28;19917;-66
2022/06/05 05:37:42;;;;;;;;;;;;;;;-142.75;100.00;77076.22;5012095;28;19921;-63
2022/06/05 05:42:52;;;;;;;;;;;;;;;-142.75;100.00;77078.19;5012210;28;19980;-64
2022/06/05 05:45:18;;;;;;;;;;;;;;;-142.75;100.00;77074.25;5012061;28;19921;-66
2022/06/05 05:47:43;;;;;;;;;;;;;;;-142.75;100.00;77074.25;5011975;28;20379;-64
2022/06/05 05:50:11;;;;;;;;;;;;;;;-142.75;100.00;77062.44;5011832;28;20451;-66
2022/06/05 05:52:37;;;;;;;;;;;;;;;-142.75;100.00;77062.44;5011092;28;19922;-66
2022/06/05 05:55:02;;;;;;;;;;;;;;;-142.75;100.00;77050.63;5011865;28;20413;-66
2022/06/05 05:57:27;;;;;;;;;;;;;;;-142.75;100.00;77050.63;5011895;28;20021;-66
2022/06/05 05:59:52;;;;;;;;;;;;;;;-142.75;100.00;77044.72;5011566;28;19917;-66
2022/06/05 06:02:21;;;;;;;;;;;;;;;-142.75;100.00;77034.88;5011648;28;20453;-66
2022/06/05 06:04:47;;;;;;;;;;;;;;;-142.75;100.00;77054.56;5011931;28;20080;-66
2022/06/05 06:07:12;;;;;;;;;;;;;;;-142.75;100.00;77054.56;5011846;28;20637;-66
2022/06/05 06:09:38;;;;;;;;;;;;;;;-142.75;100.00;77048.66;5011470;28;19917;-66
2022/06/05 06:12:03;;;;;;;;;;;;;;;-142.75;100.00;77050.63;5011726;28;19918;-66
2022/06/05 06:14:28;;;;;;;;;;;;;;;-142.75;100.00;77048.66;5011516;28;19939;-66
2022/06/05 06:16:54;;;;;;;;;;;;;;;-142.75;100.00;77042.75;5011695;28;19925;-66
2022/06/05 06:19:19;;;;;;;;;;;;;;;-142.75;100.00;77034.88;5011352;28;19921;-67
2022/06/05 06:21:44;;;;;;;;;;;;;;;-142.75;100.00;77030.94;5011825;28;20089;-66
2022/06/05 06:24:11;;;;;;;;;;;;;;;-142.75;100.00;77034.88;5011405;28;19964;-67
2022/06/05 06:26:36;;;;;;;;;;;;;;;-142.75;100.00;77046.69;5011611;28;19924;-67
2022/06/05 06:29:01;;;;;;;;;;;;;;;-142.75;100.00;77040.78;5009978;28;20614;-67
2022/06/05 06:31:26;;;;;;;;;;;;;;;-142.75;100.00;77027.00;5011519;28;19917;-67
2022/06/05 06:33:51;;;;;;;;;;;;;;;-142.75;100.00;77017.16;5011384;28;19921;-66
2022/06/05 06:36:18;;;;;;;;;;;;;;;-142.75;100.00;77021.09;5011391;28;19918;-67
2022/06/05 06:38:43;;;;;;;;;;;;;;;-142.75;100.00;77015.19;5009858;28;19917;-66
2022/06/05 06:41:10;;;;;;;;;;;;;;;-142.75;100.00;77011.25;5011431;28;20016;-66
2022/06/05 06:43:35;;;;;;;;;;;;;;;-142.75;100.00;77003.38;5011178;28;19964;-66
2022/06/05 06:46:01;;;;;;;;;;;;;;;-142.75;100.00;76995.50;5011541;28;19982;-66
2022/06/05 06:48:26;;;;;;;;;;;;;;;-142.75;100.00;76983.69;5011100;28;19917;-67
2022/06/05 06:50:55;;;;;;;;;;;;;;;-142.75;100.00;76987.63;5011306;28;19929;-67
2022/06/05 06:53:21;;;;;;;;;;;;;;;-142.75;100.00;76964.00;5011172;28;19963;-67
2022/06/05 06:55:47;;;;;;;;;;;;;;;-142.75;100.00;76971.88;5011266;28;19996;-66
2022/06/05 06:58:12;;;;;;;;;;;;;;;-142.75;100.00;76962.03;4993265;28;19921;-67
2022/06/05 07:00:37;;;;;;;;;;;;;;;-142.75;100.00;76952.19;5011191;28;19924;-66
2022/06/05 07:03:03;;;;;;;;;;;;;;;-142.75;100.00;76948.25;5011408;28;19922;-66
2022/06/05 07:05:28;;;;;;;;;;;;;;;-142.75;100.00;76938.41;5015023;28;19979;-67
2022/06/05 07:07:53;;;;;;;;;;;;;;;-142.75;100.00;76934.47;5014878;28;19918;-66
2022/06/05 07:10:18;;;;;;;;;;;;;;;-142.75;100.00;76918.72;5015090;28;20551;-67
2022/06/05 07:12:43;;;;;;;;;;;;;;;-142.75;100.00;76912.81;5014721;28;19918;-67
2022/06/05 07:15:09;;;;;;;;;;;;;;;-142.75;100.00;76897.06;5015095;28;19918;-67
2022/06/05 07:17:34;;;;;;;;;;;;;;;-142.75;100.00;76893.13;5014794;28;20295;-67
2022/06/05 07:19:59;;;;;;;;;;;;;;;-142.75;100.00;76877.38;5014662;28;19980;-66
2022/06/05 07:22:25;;;;;;;;;;;;;;;-142.75;100.00;76877.38;5014472;28;20471;-66
2022/06/05 07:24:50;;;;;;;;;;;;;;;-142.75;100.00;76853.75;5014756;28;20004;-67
2022/06/05 07:27:16;;;;;;;;;;;;;;;-142.75;100.00;76849.81;5014657;28;19918;-66
2022/06/05 07:29:41;;;;;;;;;;;;;;;-142.75;100.00;76832.09;4996785;28;19964;-67
2022/06/05 07:32:06;;;;;;;;;;;;;;;-142.75;100.00;76822.25;5014809;28;20391;-67
2022/06/05 07:34:31;;;;;;;;;;;;;;;-142.75;100.00;76812.41;5014415;28;19921;-67
2022/06/05 07:36:57;;;;;;;;;;;;;;;-142.75;100.00;76790.78;5014533;28;19925;-67
2022/06/05 07:39:22;;;;;;;;;;;;;;;-142.75;100.00;76784.88;5014202;28;19928;-66
2022/06/05 07:41:49;;;;;;;;;;;;;;;-142.75;100.00;76767.16;5014322;28;19925;-66
2022/06/05 07:44:16;;;;;;;;;;;;;;;-142.75;100.00;76739.59;5014205;28;19933;-67
2022/06/05 07:46:41;;;;;;;;;;;;;;;-142.75;100.00;76723.84;5014511;28;19917;-66
2022/06/05 07:49:06;;;;;;;;;;;;;;;-142.75;100.00;76708.09;5014035;28;19923;-67
2022/06/05 07:54:26;;;;;;;;;;;;;;;-142.75;100.00;76627.38;5014227;28;20294;-67
2022/06/05 07:56:52;;;;;;;;;;;;;;;-142.75;100.00;76593.91;5014223;28;19917;-67
2022/06/05 07:59:17;;;;;;;;;;;;;;;-142.75;100.00;76527.00;5013709;28;20363;-67
2022/06/05 08:01:46;;;;;;;;;;;;;;;-142.75;100.00;76499.44;5014017;28;19922;-67
2022/06/05 08:04:12;;;;;;;;;;;;;;;-142.75;100.00;76460.06;5035160;23;20425;-69
2022/06/05 08:06:37;;;;;;;;;;;;;;;-142.75;100.00;76416.75;5012714;28;19929;-69
2022/06/05 08:09:04;;;;;;;;;;;;;;;-142.75;100.00;76418.72;5031946;28;19925;-68
2022/06/05 08:11:29;;;;;;;;;;;;;;;-142.75;100.00;76375.41;5015860;28;19995;-68
2022/06/05 08:13:54;;;;;;;;;;;;;;;-142.75;100.00;76365.56;5033540;28;20015;-68
2022/06/05 08:16:19;;;;;;;;;;;;;;;-142.75;100.00;76353.78;5032489;28;19917;-68
2022/06/05 08:18:45;;;;;;;;;;;;;;;-142.75;100.00;76310.47;5033213;28;20337;-67
2022/06/05 08:21:10;;;;;;;;;;;;;;;-142.75;100.00;76286.84;5033332;28;20294;-69
2022/06/05 08:23:35;;;;;;;;;;;;;;;-142.75;100.00;76269.13;5033271;28;20294;-68
2022/06/05 08:26:01;;;;;;;;;;;;;;;-142.75;100.00;76253.38;5033448;28;19979;-68
2022/06/05 08:28:27;;;;;;;;;;;;;;;-142.75;100.00;76255.34;5032989;28;19957;-69
2022/06/05 08:30:52;;;;;;;;;;;;;;;-142.75;100.00;76231.72;5033309;28;19964;-67
2022/06/05 08:33:18;;;;;;;;;;;;;;;-142.75;100.00;76233.69;5033288;28;20295;-68
2022/06/05 08:35:44;;;;;;;;;;;;;;;-142.75;100.00;76251.41;5033191;28;19917;-70
2022/06/05 08:44:04;;;;;;;;;;;;;;;-142.75;100.00;76223.84;5013298;28;19931;-69
2022/06/05 08:46:35;;;;;;;;;;;;;;;-142.75;100.00;76208.09;5013115;28;19963;-67
2022/06/05 08:49:23;;;;;;;;;;;;;;;-142.75;100.00;76176.63;5012944;28;20471;-70
2022/06/05 08:51:57;;;;;;;;;;;;;;;-142.75;100.00;76149.06;4984935;28;20260;-70
2022/06/05 08:54:46;;;;;;;;;;;;;;;-142.75;100.00;76141.19;5013036;28;19964;-70
2022/06/05 08:57:14;;;;;;;;;;;;;;;-142.75;100.00;76121.50;5013103;28;19992;-69
2022/06/05 08:59:52;;;;;;;;;;;;;;;-142.75;100.00;76095.91;5012988;28;20357;-69
2022/06/05 09:02:53;;;;;;;;;;;;;;;-142.75;100.00;76101.81;5013154;28;20310;-70
2022/06/05 09:05:18;;;;;;;;;;;;;;;-142.75;100.00;76074.25;4952204;29;20027;-70
2022/06/05 09:07:45;;;;;;;;;;;;;;;-142.75;100.00;76040.81;4999806;28;19917;-68
2022/06/05 09:10:33;;;;;;;;;;;;;;;-142.75;100.00;76030.97;5012788;28;19917;-70
2022/06/05 09:13:06;;;;;;;;;;;;;;;-142.75;100.00;76011.28;5004741;28;20276;-69
2022/06/05 09:15:35;;;;;;;;;;;;;;;-142.75;100.00;75985.69;4995025;28;19917;-69
2022/06/05 09:18:01;;;;;;;;;;;;;;;-142.75;100.00;75964.03;5012324;28;20005;-69
2022/06/05 09:20:47;;;;;;;;;;;;;;;-142.75;100.00;75950.28;4994985;28;20012;-70
2022/06/05 09:23:36;;;;;;;;;;;;;;;-142.75;100.00;75936.50;5011784;28;19929;-71
2022/06/05 09:26:02;;;;;;;;;;;;;;;-142.75;100.00;75924.69;4983347;28;19917;-70
2022/06/05 09:28:53;;;;;;;;;;;;;;;-142.75;100.00;75914.84;5011523;28;19924;-69
2022/06/05 09:31:18;;;;;;;;;;;;;;;-142.75;100.00;75918.78;5012008;28;20334;-70
2022/06/05 09:33:44;;;;;;;;;;;;;;;-142.75;100.00;75932.56;5011636;28;19917;-69
2022/06/05 09:36:12;;;;;;;;;;;;;;;-142.75;100.00;75938.47;5017334;28;19917;-69
2022/06/05 09:38:43;;;;;;;;;;;;;;;-142.75;100.00;75936.50;5017372;28;19917;-70
2022/06/05 09:41:11;;;;;;;;;;;;;;;-142.75;100.00;75944.38;5011662;28;19917;-69
2022/06/05 09:43:46;;;;;;;;;;;;;;;-142.75;100.00;75940.44;5011550;28;19922;-70
2022/06/05 09:46:21;;;;;;;;;;;;;;;-142.75;100.00;75932.56;5011560;28;19917;-70
2022/06/05 09:48:51;;;;;;;;;;;;;;;-142.75;100.00;75948.31;5011284;28;20005;-69
2022/06/05 09:51:18;;;;;;;;;;;;;;;-142.75;100.00;75940.44;5012008;28;19928;-69
2022/06/05 09:53:49;;;;;;;;;;;;;;;-142.75;100.00;75934.53;5011200;28;19917;-68
2022/06/05 09:56:20;;;;;;;;;;;;;;;-142.75;100.00;75936.50;5011451;28;19961;-69
2022/06/05 09:58:45;;;;;;;;;;;;;;;-142.75;100.00;75952.25;5011103;28;19976;-70
2022/06/05 10:01:19;;;;;;;;;;;;;;;-142.75;100.00;75954.22;5011274;28;19917;-69
2022/06/05 10:03:45;;;;;;;;;;;;;;;-142.75;100.00;75948.31;5011061;28;19921;-70
2022/06/05 10:06:29;;;;;;;;;;;;;;;-142.75;100.00;75944.38;5011329;28;19971;-70
2022/06/05 10:08:54;;;;;;;;;;;;;;;-142.75;100.00;75944.38;5010627;28;19918;-69
2022/06/05 10:11:22;;;;;;;;;;;;;;;-142.75;100.00;75952.25;5010963;28;19964;-70
2022/06/05 10:13:51;;;;;;;;;;;;;;;-142.75;100.00;75956.19;5010995;28;19923;-70
2022/06/05 10:16:35;;;;;;;;;;;;;;;-142.75;100.00;75952.25;5011003;28;20298;-72
2022/06/05 10:19:13;;;;;;;;;;;;;;;-142.75;100.00;75952.25;5010493;28;20000;-70
2022/06/05 10:21:43;;;;;;;;;;;;;;;-142.75;100.00;75938.47;5011311;28;20358;-71
2022/06/05 10:24:26;;;;;;;;;;;;;;;-142.75;100.00;75948.31;5010761;28;19964;-70
2022/06/05 10:26:58;;;;;;;;;;;;;;;-142.75;100.00;75954.22;5010874;28;19924;-70
2022/06/05 10:29:40;;;;;;;;;;;;;;;-142.75;100.00;75952.25;5010509;28;20008;-71
2022/06/05 10:32:29;;;;;;;;;;;;;;;-142.75;100.00;75958.16;5010848;28;19921;-71
2022/06/05 10:35:13;;;;;;;;;;;;;;;-142.75;100.00;75966.00;5002286;28;19917;-70
2022/06/05 10:37:51;;;;;;;;;;;;;;;-142.75;100.00;75956.19;4992879;28;19918;-71
2022/06/05 10:40:20;;;;;;;;;;;;;;;-142.75;100.00;75964.03;5010793;28;19924;-70
2022/06/05 10:42:45;;;;;;;;;;;;;;;-142.75;100.00;75960.13;5010351;28;20027;-70
2022/06/05 10:45:13;;;;;;;;;;;;;;;-142.75;100.00;75964.03;5010814;28;20008;-71
2022/06/05 10:47:41;;;;;;;;;;;;;;;-142.75;100.00;75967.97;5010246;28;19940;-70
2022/06/05 10:50:25;;;;;;;;;;;;;;;-142.75;100.00;75981.75;5010989;28;19925;-68
2022/06/05 10:52:56;;;;;;;;;;;;;;;-142.75;100.00;75975.84;5010669;28;19918;-70
2022/06/05 10:55:30;;;;;;;;;;;;;;;-142.75;100.00;75975.84;5013338;28;19971;-70
2022/06/05 10:58:08;;;;;;;;;;;;;;;-142.75;100.00;75967.97;5029551;28;20387;-70
2022/06/05 11:00:37;;;;;;;;;;;;;;;-142.75;100.00;75954.22;5030168;28;19917;-70
2022/06/05 11:03:05;;;;;;;;;;;;;;;-142.75;100.00;75956.19;5029510;28;19928;-70
2022/06/05 11:05:39;;;;;;;;;;;;;;;-142.75;100.00;75954.22;5030094;28;19917;-70
2022/06/05 11:08:14;;;;;;;;;;;;;;;-142.75;100.00;75956.19;5029673;28;19917;-70
2022/06/05 11:13:46;;;;;;;;;;;;;;;-142.75;100.00;75979.78;5029859;28;20452;-70
2022/06/05 11:16:14;;;;;;;;;;;;;;;-142.75;100.00;75987.66;5029948;28;20402;-69
2022/06/05 11:18:47;;;;;;;;;;;;;;;-142.75;100.00;75999.47;5011917;28;20387;-70
2022/06/05 11:21:16;;;;;;;;;;;;;;;-142.75;100.00;76005.38;5014315;28;19924;-71
2022/06/05 11:23:41;;;;;;;;;;;;;;;-142.75;100.00;75995.53;5013626;28;19928;-69
2022/06/05 11:26:21;;;;;;;;;;;;;;;-142.75;100.00;76003.41;5017657;28;19917;-71
2022/06/05 11:29:01;;;;;;;;;;;;;;;-142.75;100.00;76009.31;5010125;28;19956;-70
2022/06/05 11:31:26;;;;;;;;;;;;;;;-142.75;100.00;76027.03;5010220;28;19972;-70
2022/06/05 11:34:10;;;;;;;;;;;;;;;-142.75;100.00;76027.03;5026188;28;19918;-70
2022/06/05 11:36:44;;;;;;;;;;;;;;;-142.75;100.00;76036.88;5030002;28;19921;-70
2022/06/05 11:39:29;;;;;;;;;;;;;;;-142.75;100.00;76030.97;5011774;28;19932;-70
2022/06/05 11:42:03;;;;;;;;;;;;;;;-142.75;100.00;76062.47;5030037;28;19917;-70
2022/06/05 11:44:28;;;;;;;;;;;;;;;-142.75;100.00;76086.06;5029772;28;19921;-70
2022/06/05 11:47:04;;;;;;;;;;;;;;;-142.75;100.00;76086.06;5008046;28;20001;-70
2022/06/05 11:49:43;;;;;;;;;;;;;;;-142.75;100.00;76121.50;4999596;28;20059;-70
2022/06/05 11:52:14;;;;;;;;;;;;;;;-142.75;100.00;76125.44;5033718;28;19967;-69
2022/06/05 11:54:50;;;;;;;;;;;;;;;-142.75;100.00;76123.47;5033072;28;19960;-70
2022/06/05 11:57:22;;;;;;;;;;;;;;;-142.75;100.00;76129.38;5015494;28;19971;-69
2022/06/05 11:59:55;;;;;;;;;;;;;;;-142.75;100.00;76125.44;5015123;28;19924;-69
2022/06/05 12:02:39;;;;;;;;;;;;;;;-142.75;100.00;76149.06;5015391;28;19921;-69
2022/06/05 12:05:13;;;;;;;;;;;;;;;-142.75;100.00;76158.91;5033274;28;19925;-70
2022/06/05 12:07:38;;;;;;;;;;;;;;;-142.75;100.00;76164.81;5033044;28;20366;-70
2022/06/05 12:10:16;;;;;;;;;;;;;;;-142.75;100.00;76164.81;5015052;28;19969;-69
2022/06/05 12:12:50;;;;;;;;;;;;;;;-142.75;100.00;76170.72;5033098;28;19926;-69
2022/06/05 12:15:25;;;;;;;;;;;;;;;-142.75;100.00;76172.69;5032965;28;19920;-70
2022/06/05 12:18:14;;;;;;;;;;;;;;;-142.75;100.00;76188.44;5032620;28;20588;-69
2022/06/05 12:20:40;;;;;;;;;;;;;;;-142.75;100.00;76182.53;5015684;28;19917;-70
2022/06/05 12:23:08;;;;;;;;;;;;;;;-142.75;100.00;76172.69;5014714;28;19948;-70
2022/06/05 12:25:56;;;;;;;;;;;;;;;-142.75;100.00;76180.56;5032630;28;19917;-70
2022/06/05 12:28:31;;;;;;;;;;;;;;;-142.75;100.00;76188.44;5003857;28;19917;-70
2022/06/05 12:31:02;;;;;;;;;;;;;;;-142.75;100.00;76188.44;5032443;28;20003;-70
2022/06/05 12:33:50;;;;;;;;;;;;;;;-142.75;100.00;76194.34;5032546;28;19917;-70
2022/06/05 12:36:21;;;;;;;;;;;;;;;-142.75;100.00;76192.38;5024382;28;19980;-71
2022/06/05 12:38:50;;;;;;;;;;;;;;;-142.75;100.00;76192.38;5032080;28;20457;-71
2022/06/05 12:41:18;;;;;;;;;;;;;;;-142.75;100.00;76196.31;5014639;28;20375;-70
2022/06/05 12:44:02;;;;;;;;;;;;;;;-142.75;100.00;76190.41;5032042;28;20302;-69
2022/06/05 12:46:36;;;;;;;;;;;;;;;-142.75;100.00;76192.38;5032623;28;20267;-70